This is the latest recevied weather packets stored in our database for station/object W0BJ-1. If no packets are shown the sender has not sent any weather packets the latest 10 day(s).
| Time | Temp. | Humidity | Pressure | Rain* | Wind** | Luminosity | Snow |
|---|---|---|---|---|---|---|---|
| 1777741250 | 14.44° C | 54% | 1020.6 hPa | 0 mm | - | 1208 W/m² | - |
| 1777740039 | 13.33° C | 51% | 1020.8 hPa | 0 mm | - | 258 W/m² | - |
| 1777739136 | 13.33° C | 52% | 1020.8 hPa | 0 mm | - | 1058 W/m² | - |
| 1777738839 | 13.33° C | 54% | 1020.8 hPa | 0 mm | - | 1039 W/m² | - |
| 1777735540 | 12.78° C | 58% | 1020.7 hPa | 0 mm | - | 192 W/m² | - |
| 1777734965 | 12.22° C | 63% | 1020.7 hPa | 0 mm | - | 782 W/m² | - |
| 1777734052 | 13.33° C | 60% | 1020.7 hPa | 0 mm | - | 747 W/m² | - |
| 1777732840 | 12.22° C | 65% | 1020.5 hPa | 0 mm | - | 664 W/m² | - |
| 1777732542 | 12.22° C | 66% | 1020.5 hPa | 0 mm | - | 624 W/m² | - |
| 1777731642 | 11.67° C | 72% | 1020.3 hPa | 0 mm | - | 554 W/m² | - |
| 1777730740 | 11.11° C | 71% | 1020.3 hPa | 0 mm | - | 320 W/m² | - |
| 1777730453 | 11.11° C | 73% | 1020.3 hPa | 0 mm | - | 294 W/m² | - |
| 1777728344 | 10° C | 77% | 1020 hPa | 0 mm | - | 232 W/m² | - |
| 1777727440 | 9.44° C | 78% | 1019.7 hPa | 0 mm | - | 248 W/m² | - |
| 1777726853 | 8.89° C | 80% | 1019.6 hPa | 0 mm | - | 237 W/m² | - |
| 1777725640 | 7.78° C | 83% | 1019.8 hPa | 0 mm | - | 179 W/m² | - |
| 1777724740 | 7.22° C | 85% | 1019.5 hPa | 0 mm | - | 46 W/m² | - |
| 1777724440 | 7.22° C | 85% | 1019.4 hPa | 0 mm | - | 74 W/m² | - |
| 1777722358 | 6.11° C | 85% | 1019.1 hPa | 0 mm | - | 26 W/m² | - |
| 1777721144 | 6.67° C | 84% | 1018.8 hPa | 0 mm | - | 14 W/m² | - |
| 1777717240 | 7.22° C | 83% | 1018.3 hPa | 0 mm | - | 0 W/m² | - |
| 1777716951 | 7.22° C | 83% | 1018.1 hPa | 0 mm | - | 0 W/m² | - |
| 1777715740 | 7.22° C | 83% | 1018.2 hPa | 0 mm | - | 0 W/m² | - |
| 1777713039 | 7.22° C | 81% | 1018.1 hPa | 0 mm | - | 0 W/m² | - |
| 1777711548 | 7.78° C | 80% | 1017.9 hPa | 0 mm | - | 0 W/m² | - |
* Rain latest hour (hover to see other rain measurements)
** Current wind speed in m/s (hover to see current wind gust speed)